createdAt,value
2018-02-21T00:00:17.648Z,31.30
2018-02-21T00:01:06.709Z,31.67
2018-02-21T00:01:55.774Z,29.27
2018-02-21T00:02:44.809Z,28.50
2018-02-21T00:03:33.875Z,26.55
2018-02-21T00:04:22.957Z,25.33
2018-02-21T00:05:12.082Z,25.50
2018-02-21T00:06:01.131Z,28.92
2018-02-21T00:06:50.178Z,26.27
2018-02-21T00:07:39.219Z,24.65
2018-02-21T00:08:28.271Z,26.17
2018-02-21T00:09:17.327Z,26.12
2018-02-21T00:10:06.371Z,25.45
2018-02-21T00:10:55.814Z,26.58
2018-02-21T00:11:44.848Z,27.15
2018-02-21T00:12:33.900Z,29.15
2018-02-21T00:13:22.953Z,28.00
2018-02-21T00:14:11.999Z,28.20
2018-02-21T00:15:01.038Z,28.65
2018-02-21T00:15:50.107Z,31.83
2018-02-21T00:16:39.655Z,31.25
2018-02-21T00:17:28.704Z,31.95
2018-02-21T00:18:17.762Z,32.08
2018-02-21T00:19:06.841Z,29.45
2018-02-21T00:19:56.098Z,29.67
2018-02-21T00:20:45.159Z,27.95
2018-02-21T00:21:34.277Z,27.48
2018-02-21T00:22:23.329Z,26.65
2018-02-21T00:23:12.405Z,27.00
2018-02-21T00:24:01.485Z,21.75
2018-02-21T00:24:50.529Z,22.02
2018-02-21T00:25:39.593Z,19.92
2018-02-21T00:26:28.651Z,19.77
2018-02-21T00:27:17.827Z,18.90
2018-02-21T00:28:06.886Z,18.65
2018-02-21T00:28:55.948Z,19.42
2018-02-21T00:29:45.001Z,16.23
2018-02-21T00:30:34.053Z,17.58
2018-02-21T00:31:23.104Z,20.10
2018-02-21T00:32:12.163Z,20.62
2018-02-21T00:33:01.239Z,22.23
2018-02-21T00:33:50.276Z,21.80
2018-02-21T00:34:39.325Z,16.25
2018-02-21T00:35:28.364Z,16.62
2018-02-21T00:36:17.416Z,16.23
2018-02-21T00:37:06.474Z,14.63
2018-02-21T00:37:55.520Z,15.07
2018-02-21T00:38:44.609Z,13.73
2018-02-21T00:39:33.668Z,14.68
2018-02-21T00:40:22.730Z,14.20
2018-02-21T00:41:11.766Z,15.38
2018-02-21T00:42:00.830Z,13.30
2018-02-21T00:42:49.879Z,14.40
2018-02-21T00:43:39.131Z,14.70
2018-02-21T00:44:28.265Z,15.75
2018-02-21T00:45:17.299Z,15.20
2018-02-21T00:46:06.333Z,14.32
2018-02-21T00:46:55.375Z,14.20
2018-02-21T00:47:44.430Z,15.63
2018-02-21T00:48:33.484Z,13.60
2018-02-21T00:49:22.530Z,14.75
2018-02-21T00:50:11.606Z,13.73
2018-02-21T00:51:00.664Z,14.55
2018-02-21T00:51:49.717Z,16.25
2018-02-21T00:52:38.769Z,14.82
2018-02-21T00:53:27.812Z,20.12
2018-02-21T00:54:16.867Z,20.00
2018-02-21T00:55:05.930Z,26.52
2018-02-21T00:55:55.050Z,29.98
2018-02-21T00:56:44.125Z,25.52
2018-02-21T00:57:33.158Z,31.60
2018-02-21T00:58:22.470Z,32.72
2018-02-21T00:59:11.545Z,27.98
2018-02-21T01:00:00.603Z,28.08
2018-02-21T01:00:49.674Z,25.52
2018-02-21T01:01:38.955Z,27.58
2018-02-21T01:02:28.036Z,28.25
2018-02-21T01:03:17.083Z,27.08
2018-02-21T01:04:06.202Z,25.77
2018-02-21T01:04:55.278Z,26.33
2018-02-21T01:05:44.338Z,27.25
2018-02-21T01:06:33.436Z,24.95
2018-02-21T01:07:22.485Z,25.15
2018-02-21T01:08:11.535Z,26.55
2018-02-21T01:09:00.610Z,21.25
2018-02-21T01:09:49.693Z,20.15
2018-02-21T01:10:38.747Z,19.85
2018-02-21T01:11:27.789Z,22.05
2018-02-21T01:12:16.826Z,21.58
2018-02-21T01:13:05.859Z,26.17
2018-02-21T01:13:54.934Z,26.02
2018-02-21T01:14:44.067Z,29.60
2018-02-21T01:15:33.102Z,25.15
2018-02-21T01:16:22.149Z,25.77
2018-02-21T01:17:11.192Z,27.10
2018-02-21T01:18:00.231Z,27.15
2018-02-21T01:18:49.275Z,29.20
2018-02-21T01:19:38.332Z,25.10
2018-02-21T01:20:27.602Z,22.87
2018-02-21T01:21:16.658Z,22.27
2018-02-21T01:22:05.769Z,23.20
2018-02-21T01:22:54.822Z,21.35
2018-02-21T01:23:43.881Z,19.33
2018-02-21T01:24:32.967Z,22.17
2018-02-21T01:25:22.017Z,24.30
2018-02-21T01:26:11.077Z,20.80
2018-02-21T01:27:00.141Z,21.50
2018-02-21T01:27:49.188Z,24.25
2018-02-21T01:28:38.249Z,24.55
2018-02-21T01:29:27.296Z,22.25
2018-02-21T01:30:16.473Z,22.52
2018-02-21T01:31:05.539Z,20.40
2018-02-21T01:31:54.613Z,22.55
2018-02-21T01:32:43.669Z,21.60
2018-02-21T01:33:32.716Z,23.35
2018-02-21T01:34:21.763Z,24.23
2018-02-21T01:35:10.807Z,26.42
2018-02-21T01:35:59.888Z,26.45
2018-02-21T01:36:48.924Z,27.95
2018-02-21T01:37:37.959Z,25.17
2018-02-21T01:38:26.995Z,25.90
2018-02-21T01:39:16.030Z,44.53
2018-02-21T01:40:05.075Z,26.45
2018-02-21T01:40:54.110Z,40.03
2018-02-21T01:41:43.191Z,36.45
2018-02-21T01:42:32.223Z,26.45
2018-02-21T01:43:21.293Z,23.85
2018-02-21T01:44:10.330Z,21.20
2018-02-21T01:44:59.366Z,21.37
2018-02-21T01:45:48.405Z,20.80
2018-02-21T01:46:37.438Z,21.52
2018-02-21T01:47:26.683Z,18.85
2018-02-21T01:48:15.728Z,20.52
2018-02-21T01:49:04.767Z,21.95
2018-02-21T01:49:53.816Z,18.98
2018-02-21T01:50:58.651Z,20.33
2018-02-21T01:51:47.704Z,18.90
2018-02-21T01:52:37.161Z,19.12
2018-02-21T01:53:26.261Z,18.92
2018-02-21T01:54:15.308Z,18.73
2018-02-21T01:55:04.368Z,17.92
2018-02-21T01:55:53.412Z,17.50
2018-02-21T01:56:42.447Z,19.67
2018-02-21T01:57:31.474Z,16.73
2018-02-21T01:58:20.524Z,16.87
2018-02-21T01:59:09.620Z,17.58
2018-02-21T01:59:58.688Z,16.40
2018-02-21T02:00:47.726Z,17.42
2018-02-21T02:01:36.780Z,16.08
2018-02-21T02:02:25.834Z,17.27
2018-02-21T02:03:14.896Z,16.85
2018-02-21T02:04:03.970Z,17.77
2018-02-21T02:04:53.084Z,17.17
2018-02-21T02:05:42.140Z,17.75
2018-02-21T02:06:31.247Z,18.52
2018-02-21T02:07:20.279Z,18.45
2018-02-21T02:08:09.324Z,17.80
2018-02-21T02:08:58.398Z,17.87
2018-02-21T02:09:47.448Z,16.65
2018-02-21T02:10:36.626Z,17.83
2018-02-21T02:11:25.688Z,17.83
2018-02-21T02:12:15.202Z,18.50
2018-02-21T02:13:04.248Z,17.95
2018-02-21T02:13:53.292Z,16.98
2018-02-21T02:14:42.370Z,16.80
2018-02-21T02:15:31.417Z,17.08
2018-02-21T02:16:20.459Z,18.40
2018-02-21T02:17:09.619Z,17.62
2018-02-21T02:17:58.693Z,17.15
2018-02-21T02:18:47.738Z,15.80
2018-02-21T02:19:36.799Z,17.60
2018-02-21T02:20:25.841Z,17.62
2018-02-21T02:21:14.899Z,17.40
2018-02-21T02:22:03.965Z,18.75
2018-02-21T02:22:53.103Z,17.65
2018-02-21T02:23:42.148Z,17.30
2018-02-21T02:24:31.186Z,17.00
2018-02-21T02:25:20.233Z,18.73
2018-02-21T02:26:09.284Z,19.98
2018-02-21T02:26:58.337Z,20.20
2018-02-21T02:27:47.396Z,18.98
2018-02-21T02:28:36.674Z,18.10
2018-02-21T02:29:25.718Z,21.33
2018-02-21T02:30:14.765Z,20.33
2018-02-21T02:31:03.821Z,19.83
2018-02-21T02:31:52.932Z,19.67
2018-02-21T02:32:42.002Z,20.33
2018-02-21T02:33:31.038Z,18.02
2018-02-21T02:34:20.075Z,20.12
2018-02-21T02:35:09.163Z,20.85
2018-02-21T02:35:58.203Z,18.35
2018-02-21T02:36:47.252Z,20.25
2018-02-21T02:37:36.304Z,20.58
2018-02-21T02:38:36.887Z,19.08
2018-02-21T02:39:37.572Z,17.70
2018-02-21T02:40:26.826Z,17.75
2018-02-21T02:41:15.872Z,20.02
2018-02-21T02:42:04.912Z,18.85
2018-02-21T02:42:54.001Z,18.48
2018-02-21T02:43:43.041Z,18.55
2018-02-21T02:44:32.106Z,22.33
2018-02-21T02:45:21.180Z,20.62
2018-02-21T02:46:10.264Z,20.30
2018-02-21T02:46:59.306Z,21.17
2018-02-21T02:47:48.349Z,18.70
2018-02-21T02:48:37.425Z,19.58
2018-02-21T02:49:26.485Z,20.70
2018-02-21T02:50:15.529Z,19.40
2018-02-21T02:51:04.576Z,20.45
2018-02-21T02:51:53.688Z,18.70
2018-02-21T02:52:42.773Z,20.48
2018-02-21T02:53:31.830Z,20.92
2018-02-21T02:54:20.897Z,17.80
2018-02-21T02:55:09.934Z,20.05
2018-02-21T02:55:58.975Z,18.30
2018-02-21T02:56:48.016Z,18.15
2018-02-21T02:57:37.152Z,19.00
2018-02-21T02:58:26.209Z,18.25
2018-02-21T02:59:15.260Z,17.98
2018-02-21T03:00:04.352Z,18.80
2018-02-21T03:00:53.406Z,18.40
2018-02-21T03:01:42.457Z,18.58
2018-02-21T03:02:31.514Z,17.67
2018-02-21T03:03:20.779Z,19.35
2018-02-21T03:04:09.829Z,19.58
2018-02-21T03:04:58.888Z,20.73
2018-02-21T03:05:47.941Z,20.00
2018-02-21T03:06:36.987Z,22.35
2018-02-21T03:07:26.070Z,19.70
2018-02-21T03:08:15.122Z,21.87
2018-02-21T03:09:04.252Z,20.52
2018-02-21T03:09:53.310Z,18.27
2018-02-21T03:10:42.371Z,17.40
2018-02-21T03:11:31.426Z,18.20
2018-02-21T03:12:20.466Z,19.75
2018-02-21T03:13:09.502Z,18.83
2018-02-21T03:13:58.591Z,18.80
2018-02-21T03:14:47.654Z,18.80
2018-02-21T03:15:36.690Z,17.30
2018-02-21T03:16:25.827Z,19.20
2018-02-21T03:17:14.873Z,19.48
2018-02-21T03:18:03.952Z,22.05
2018-02-21T03:18:53.008Z,34.95
2018-02-21T03:19:42.066Z,38.03
2018-02-21T03:20:31.117Z,36.60
2018-02-21T03:21:20.162Z,31.70
2018-02-21T03:22:09.662Z,39.55
2018-02-21T03:22:58.711Z,34.03
2018-02-21T03:23:47.756Z,30.45
2018-02-21T03:24:36.799Z,26.60
2018-02-21T03:25:25.837Z,23.85
2018-02-21T03:26:14.870Z,25.00
2018-02-21T03:27:03.981Z,26.00
2018-02-21T03:27:53.022Z,25.98
2018-02-21T03:28:42.070Z,26.33
2018-02-21T03:29:31.115Z,21.70
2018-02-21T03:30:20.148Z,26.35
2018-02-21T03:31:09.207Z,32.22
2018-02-21T03:31:58.365Z,31.87
2018-02-21T03:32:47.425Z,28.48
2018-02-21T03:33:36.466Z,29.20
2018-02-21T03:34:25.519Z,30.00
2018-02-21T03:35:14.570Z,26.80
2018-02-21T03:36:03.630Z,28.42
2018-02-21T03:36:52.685Z,29.05
2018-02-21T03:37:42.015Z,25.67
2018-02-21T03:38:31.067Z,26.00
2018-02-21T03:39:20.136Z,29.30
2018-02-21T03:40:09.194Z,29.77
2018-02-21T03:40:58.239Z,25.98
2018-02-21T03:41:47.287Z,29.80
2018-02-21T03:42:36.362Z,27.98
2018-02-21T03:43:25.398Z,27.80
2018-02-21T03:44:14.437Z,24.70
2018-02-21T03:45:03.484Z,25.85
2018-02-21T03:45:52.577Z,25.30
2018-02-21T03:46:41.621Z,22.60
2018-02-21T03:47:30.677Z,23.33
2018-02-21T03:48:19.836Z,24.15
2018-02-21T03:49:09.024Z,22.92
2018-02-21T03:49:58.083Z,22.23
2018-02-21T03:50:47.135Z,23.17
2018-02-21T03:51:36.208Z,27.48
2018-02-21T03:52:25.271Z,23.58
2018-02-21T03:53:14.323Z,27.08
2018-02-21T03:54:03.667Z,24.12
2018-02-21T03:54:52.725Z,23.70
2018-02-21T03:55:41.782Z,28.00
2018-02-21T03:56:30.836Z,26.58
2018-02-21T03:57:19.891Z,26.48
2018-02-21T03:58:08.931Z,30.02
2018-02-21T03:58:58.040Z,33.72
2018-02-21T03:59:47.079Z,30.90
2018-02-21T04:00:36.119Z,29.60
2018-02-21T04:01:25.164Z,29.83
2018-02-21T04:02:14.211Z,28.98
2018-02-21T04:03:03.255Z,29.00
2018-02-21T04:03:52.308Z,28.80
2018-02-21T04:04:41.413Z,27.98
2018-02-21T04:05:30.451Z,27.65
2018-02-21T04:06:19.485Z,26.70
2018-02-21T04:08:24.464Z,22.35
2018-02-21T04:09:13.503Z,20.23
2018-02-21T04:10:02.554Z,21.80
2018-02-21T04:10:51.609Z,20.33
2018-02-21T04:11:40.659Z,19.35
2018-02-21T04:12:29.735Z,29.75
2018-02-21T04:13:18.784Z,26.17
2018-02-21T04:14:07.818Z,25.08
2018-02-21T04:14:56.870Z,20.92
2018-02-21T04:15:45.917Z,20.15
2018-02-21T04:16:34.979Z,17.95
2018-02-21T04:17:24.298Z,16.60
2018-02-21T04:18:13.559Z,14.68
2018-02-21T04:19:02.625Z,33.47
2018-02-21T04:19:51.679Z,15.18
2018-02-21T04:20:43.944Z,23.60
2018-02-21T04:21:32.989Z,19.83
2018-02-21T04:22:22.080Z,18.42
2018-02-21T04:23:11.130Z,17.75
2018-02-21T04:24:00.161Z,16.33
2018-02-21T04:24:49.197Z,16.12
2018-02-21T04:25:38.242Z,15.50
2018-02-21T04:26:27.292Z,14.02
2018-02-21T04:27:16.341Z,14.55
2018-02-21T04:28:05.485Z,13.55
2018-02-21T04:28:54.533Z,14.52
2018-02-21T04:29:43.580Z,14.65
2018-02-21T04:30:32.645Z,16.85
2018-02-21T04:31:21.678Z,14.80
2018-02-21T04:32:10.740Z,18.65
2018-02-21T04:32:59.805Z,17.42
2018-02-21T04:33:48.873Z,16.33
2018-02-21T04:34:37.914Z,16.83
2018-02-21T04:35:26.961Z,16.60
2018-02-21T04:36:16.004Z,14.18
2018-02-21T04:37:05.059Z,17.70
2018-02-21T04:37:54.123Z,19.00
2018-02-21T04:38:43.207Z,20.30
2018-02-21T04:39:32.634Z,19.90
2018-02-21T04:40:21.746Z,64.55
2018-02-21T04:41:10.800Z,25.55
2018-02-21T04:41:59.892Z,18.08
2018-02-21T04:42:48.928Z,18.00
2018-02-21T04:43:38.014Z,16.10
2018-02-21T04:44:27.078Z,15.93
2018-02-21T04:45:16.126Z,15.40
2018-02-21T04:46:05.320Z,16.95
2018-02-21T04:46:54.377Z,14.90
2018-02-21T04:47:43.414Z,14.82
2018-02-21T04:48:32.476Z,14.87
2018-02-21T04:49:21.568Z,15.25
2018-02-21T04:50:10.588Z,16.27
2018-02-21T04:50:59.622Z,16.33
2018-02-21T04:51:48.714Z,14.87
2018-02-21T04:52:37.765Z,15.38
2018-02-21T04:53:27.636Z,15.27
2018-02-21T04:55:39.633Z,25.12
2018-02-21T04:56:48.536Z,16.02
2018-02-21T04:57:43.026Z,21.87
2018-02-21T04:58:49.886Z,22.05
2018-02-21T05:01:04.817Z,76.55
2018-02-21T05:01:53.886Z,32.33
2018-02-21T05:02:42.928Z,30.27
2018-02-21T05:03:31.976Z,24.27
2018-02-21T05:04:21.107Z,51.67
2018-02-21T05:05:10.142Z,38.65
2018-02-21T05:05:59.184Z,34.72
2018-02-21T05:06:48.263Z,36.40
2018-02-21T05:07:37.316Z,29.80
2018-02-21T05:08:26.373Z,26.80
2018-02-21T05:09:15.419Z,28.80
2018-02-21T05:10:04.507Z,23.38
2018-02-21T05:10:53.550Z,24.25
2018-02-21T05:11:42.607Z,25.37
2018-02-21T05:12:31.646Z,23.75
2018-02-21T05:13:20.758Z,24.37
2018-02-21T05:14:09.819Z,27.45
2018-02-21T05:14:58.865Z,21.60
2018-02-21T05:15:47.912Z,22.90
2018-02-21T05:16:36.997Z,23.92
2018-02-21T05:17:26.084Z,22.65
2018-02-21T05:18:17.507Z,23.10
2018-02-21T05:19:06.568Z,20.20
2018-02-21T05:19:55.611Z,24.83
2018-02-21T05:20:44.744Z,21.23
2018-02-21T05:21:33.774Z,23.52
2018-02-21T05:22:22.841Z,29.58
2018-02-21T05:23:11.996Z,24.58
2018-02-21T05:24:01.051Z,27.48
2018-02-21T05:24:50.130Z,26.35
2018-02-21T05:25:39.183Z,26.55
2018-02-21T05:26:28.233Z,26.05
2018-02-21T05:27:17.289Z,26.25
2018-02-21T05:28:06.343Z,30.02
2018-02-21T05:28:55.429Z,54.58
2018-02-21T05:29:44.498Z,35.45
2018-02-21T05:30:33.548Z,37.40
2018-02-21T05:31:22.610Z,43.10
2018-02-21T05:32:11.664Z,40.65
2018-02-21T05:33:00.720Z,34.42
2018-02-21T05:33:49.773Z,34.10
2018-02-21T05:34:39.130Z,33.22
2018-02-21T05:35:28.191Z,44.05
2018-02-21T05:36:17.268Z,37.40
2018-02-21T05:37:06.381Z,38.85
2018-02-21T05:37:55.416Z,64.07
2018-02-21T05:38:44.465Z,42.30
2018-02-21T05:39:33.520Z,56.45
2018-02-21T05:40:22.555Z,53.22
2018-02-21T05:41:11.767Z,50.35
2018-02-21T05:42:00.810Z,49.88
2018-02-21T05:42:49.841Z,53.35
2018-02-21T05:43:38.878Z,49.33
2018-02-21T05:44:27.927Z,49.65
2018-02-21T05:45:16.975Z,51.45
2018-02-21T05:46:06.036Z,47.08
2018-02-21T05:46:55.153Z,45.75
2018-02-21T05:47:44.206Z,47.75
2018-02-21T05:48:33.247Z,46.00
2018-02-21T05:49:22.289Z,41.17
2018-02-21T05:50:11.349Z,45.92
2018-02-21T05:51:00.417Z,168.37
2018-02-21T05:51:49.476Z,154.82
2018-02-21T05:52:39.054Z,80.40
2018-02-21T05:53:28.079Z,77.57
2018-02-21T05:54:17.136Z,121.97
2018-02-21T05:55:06.183Z,94.95
2018-02-21T05:55:55.251Z,73.20
2018-02-21T05:56:44.303Z,75.95
2018-02-21T05:57:33.365Z,93.30
2018-02-21T05:58:24.847Z,94.55
2018-02-21T05:59:13.900Z,77.45
2018-02-21T06:00:02.980Z,86.70
2018-02-21T06:00:52.035Z,77.15
2018-02-21T06:01:41.328Z,88.43
2018-02-21T06:02:30.414Z,70.32
2018-02-21T06:03:20.514Z,82.75
2018-02-21T06:04:09.576Z,99.95
2018-02-21T06:04:58.675Z,92.28
2018-02-21T06:05:47.781Z,115.07
2018-02-21T06:06:36.831Z,162.68
2018-02-21T06:07:25.914Z,131.40
2018-02-21T06:08:14.981Z,108.37
2018-02-21T06:09:04.069Z,90.68
2018-02-21T06:09:53.137Z,86.90
2018-02-21T06:10:42.204Z,84.53
2018-02-21T06:11:31.258Z,73.60
2018-02-21T06:12:20.312Z,54.80
2018-02-21T06:13:09.396Z,55.25
2018-02-21T06:13:58.445Z,60.63
2018-02-21T06:14:47.504Z,55.38
2018-02-21T06:15:36.559Z,55.88
2018-02-21T06:16:25.596Z,57.03
2018-02-21T06:17:15.134Z,56.47
2018-02-21T06:18:04.184Z,56.13
2018-02-21T06:18:53.462Z,61.22
2018-02-21T06:19:42.510Z,66.80
2018-02-21T06:20:31.561Z,67.10
2018-02-21T06:21:20.610Z,68.93
2018-02-21T06:22:09.682Z,77.90
2018-02-21T06:22:58.731Z,98.40
2018-02-21T06:23:47.798Z,94.95
2018-02-21T06:24:36.873Z,90.10
2018-02-21T06:25:25.932Z,86.00
2018-02-21T06:26:14.972Z,81.10
2018-02-21T06:27:04.032Z,70.20
2018-02-21T06:27:53.081Z,94.85
2018-02-21T06:28:42.125Z,81.55
2018-02-21T06:29:31.997Z,90.07
2018-02-21T06:30:22.111Z,87.25
2018-02-21T06:31:11.156Z,82.90
2018-02-21T06:32:00.200Z,82.00
2018-02-21T06:32:49.281Z,83.32
2018-02-21T06:33:38.350Z,68.10
2018-02-21T06:34:27.586Z,78.03
2018-02-21T06:35:16.692Z,74.15
2018-02-21T06:36:05.758Z,79.87
2018-02-21T06:36:54.824Z,75.12
2018-02-21T06:37:43.889Z,72.18
2018-02-21T06:38:33.011Z,96.87
2018-02-21T06:39:22.072Z,86.10
2018-02-21T06:40:11.165Z,85.62
2018-02-21T06:41:00.228Z,75.60
2018-02-21T06:41:49.293Z,79.30
2018-02-21T06:42:38.340Z,84.57
2018-02-21T06:43:27.402Z,88.25
2018-02-21T06:44:16.455Z,88.18
2018-02-21T06:45:05.509Z,96.00
2018-02-21T06:45:54.601Z,98.80
2018-02-21T06:46:43.664Z,83.62
2018-02-21T06:47:35.794Z,84.72
2018-02-21T06:48:24.851Z,79.05
2018-02-21T06:49:13.905Z,150.18
2018-02-21T06:50:02.999Z,117.22
2018-02-21T06:50:52.055Z,145.00
2018-02-21T06:51:44.234Z,195.68
2018-02-21T06:52:33.299Z,169.52
2018-02-21T06:53:22.374Z,148.50
2018-02-21T06:54:11.440Z,140.43
2018-02-21T06:55:00.509Z,131.68
2018-02-21T06:55:49.555Z,148.77
2018-02-21T06:56:38.603Z,96.63
2018-02-21T06:57:27.714Z,146.82
2018-02-21T06:58:16.790Z,118.45
2018-02-21T06:59:05.861Z,112.47
2018-02-21T06:59:57.642Z,95.82
2018-02-21T07:00:46.762Z,99.85
2018-02-21T07:01:35.839Z,117.43
2018-02-21T07:02:34.762Z,124.72
2018-02-21T07:03:23.845Z,102.95
2018-02-21T07:04:12.909Z,98.22
2018-02-21T07:05:01.994Z,84.10
2018-02-21T07:05:51.085Z,86.63
2018-02-21T07:06:40.167Z,87.60
2018-02-21T07:07:29.225Z,86.57
2018-02-21T07:08:18.275Z,69.05
2018-02-21T07:09:07.338Z,85.57
2018-02-21T07:09:56.602Z,71.87
2018-02-21T07:10:45.660Z,58.55
2018-02-21T07:11:34.953Z,71.75
2018-02-21T07:12:24.014Z,74.70
2018-02-21T07:13:13.073Z,66.22
2018-02-21T07:14:02.119Z,69.10
2018-02-21T07:14:51.152Z,48.42
2018-02-21T07:15:40.223Z,51.92
2018-02-21T07:16:29.269Z,53.20
2018-02-21T07:17:18.336Z,53.72
2018-02-21T07:18:07.397Z,55.30
2018-02-21T07:18:56.449Z,72.22
2018-02-21T07:19:45.509Z,93.53
2018-02-21T07:20:34.704Z,88.10
2018-02-21T07:21:23.773Z,74.62
2018-02-21T07:22:12.830Z,56.70
2018-02-21T07:23:01.893Z,58.22
2018-02-21T07:23:50.946Z,59.00
2018-02-21T07:24:39.994Z,58.80
2018-02-21T07:25:29.034Z,65.40
2018-02-21T07:26:18.138Z,104.32
2018-02-21T07:27:07.206Z,56.72
2018-02-21T07:27:56.258Z,48.75
2018-02-21T07:28:45.322Z,45.63
2018-02-21T07:29:34.370Z,58.03
2018-02-21T07:30:23.440Z,64.57
2018-02-21T07:31:12.500Z,49.85
2018-02-21T07:32:01.589Z,59.13
2018-02-21T07:32:50.649Z,63.53
2018-02-21T07:33:39.713Z,53.50
2018-02-21T07:34:28.769Z,70.45
2018-02-21T07:35:17.814Z,56.28
2018-02-21T07:36:06.861Z,51.55
2018-02-21T07:36:55.912Z,57.80
2018-02-21T07:37:46.792Z,84.55
2018-02-21T07:38:35.860Z,57.42
2018-02-21T07:39:24.905Z,40.90
2018-02-21T07:40:13.958Z,37.47
2018-02-21T07:41:03.002Z,23.35
2018-02-21T07:41:52.056Z,36.28
2018-02-21T07:42:41.106Z,50.35
2018-02-21T07:43:31.183Z,27.37
2018-02-21T07:44:20.230Z,27.77
2018-02-21T07:45:09.374Z,60.28
2018-02-21T07:45:58.448Z,39.00
2018-02-21T07:46:47.510Z,34.97
2018-02-21T07:47:36.662Z,35.42
2018-02-21T07:48:25.715Z,32.05
2018-02-21T07:49:14.770Z,37.78
2018-02-21T07:50:03.877Z,43.70
2018-02-21T07:50:52.993Z,40.40
2018-02-21T07:51:42.051Z,39.55
2018-02-21T07:52:31.091Z,43.05
2018-02-21T07:53:20.128Z,59.85
2018-02-21T07:54:09.186Z,90.68
2018-02-21T07:54:58.240Z,65.70
2018-02-21T07:55:47.288Z,62.20
2018-02-21T07:56:36.390Z,79.45
2018-02-21T07:57:25.445Z,52.97
2018-02-21T07:58:14.520Z,38.33
2018-02-21T07:59:03.581Z,40.10
2018-02-21T07:59:52.736Z,50.92
2018-02-21T08:00:41.792Z,27.27
2018-02-21T08:01:30.969Z,33.63
2018-02-21T08:02:20.032Z,33.33
2018-02-21T08:03:09.072Z,31.92
2018-02-21T08:03:58.120Z,43.05
2018-02-21T08:04:47.337Z,40.40
2018-02-21T08:05:36.388Z,41.42
2018-02-21T08:06:25.449Z,42.62
2018-02-21T08:07:14.534Z,42.60
2018-02-21T08:08:03.610Z,46.50
2018-02-21T08:08:52.669Z,51.95
2018-02-21T08:09:41.721Z,46.85
2018-02-21T08:10:30.767Z,38.95
2018-02-21T08:11:19.832Z,39.50
2018-02-21T08:12:08.883Z,35.42
2018-02-21T08:12:57.977Z,34.58
2018-02-21T08:13:47.042Z,45.67
2018-02-21T08:14:36.113Z,37.65
2018-02-21T08:15:25.168Z,38.53
2018-02-21T08:16:14.221Z,35.75
2018-02-21T08:17:03.289Z,37.28
2018-02-21T08:17:52.329Z,36.35
2018-02-21T08:18:41.600Z,36.67
2018-02-21T08:19:30.651Z,30.52
2018-02-21T08:20:19.743Z,27.17
2018-02-21T08:21:08.793Z,32.20
2018-02-21T08:21:57.827Z,34.30
2018-02-21T08:22:46.915Z,35.45
2018-02-21T08:23:35.956Z,32.13
2018-02-21T08:24:25.012Z,41.55
2018-02-21T08:25:14.047Z,40.58
2018-02-21T08:26:03.155Z,34.63
2018-02-21T08:26:52.195Z,36.85
2018-02-21T08:27:41.244Z,41.53
2018-02-21T08:28:30.326Z,28.30
2018-02-21T08:29:19.401Z,22.37
2018-02-21T08:30:08.439Z,28.98
2018-02-21T08:30:57.608Z,32.00
2018-02-21T08:31:46.675Z,24.67
2018-02-21T08:32:35.728Z,35.45
2018-02-21T08:33:24.781Z,195.65
2018-02-21T08:34:13.853Z,103.10
2018-02-21T08:35:02.935Z,64.68
2018-02-21T08:35:52.001Z,87.18
2018-02-21T08:36:41.086Z,35.50
2018-02-21T08:37:30.146Z,63.22
2018-02-21T08:38:19.226Z,60.03
2018-02-21T08:39:08.283Z,25.90
2018-02-21T08:39:57.323Z,23.90
2018-02-21T08:40:46.372Z,28.75
2018-02-21T08:41:35.426Z,23.90
2018-02-21T08:42:24.713Z,25.65
2018-02-21T08:43:13.762Z,25.67
2018-02-21T08:44:02.816Z,25.15
2018-02-21T08:44:51.872Z,29.70
2018-02-21T08:45:40.914Z,46.70
2018-02-21T08:46:29.973Z,42.00
2018-02-21T08:47:19.029Z,37.50
2018-02-21T08:48:08.202Z,27.48
2018-02-21T08:48:57.259Z,24.23
2018-02-21T08:49:46.295Z,19.75
2018-02-21T08:50:35.393Z,20.65
2018-02-21T08:51:24.447Z,23.67
2018-02-21T08:52:13.521Z,24.95
2018-02-21T08:53:02.569Z,33.58
2018-02-21T08:53:51.692Z,29.92
2018-02-21T08:54:40.743Z,34.08
2018-02-21T08:55:29.789Z,30.33
2018-02-21T08:56:18.843Z,25.45
2018-02-21T08:57:07.892Z,19.95
2018-02-21T08:57:56.992Z,19.00
2018-02-21T08:58:46.016Z,23.30
2018-02-21T08:59:35.372Z,32.35
2018-02-21T09:00:25.325Z,32.25
2018-02-21T09:01:14.378Z,23.20
2018-02-21T09:02:03.424Z,21.83
2018-02-21T09:02:52.520Z,25.20
2018-02-21T09:03:41.574Z,22.15
2018-02-21T09:04:30.703Z,18.67
2018-02-21T09:05:19.762Z,23.15
2018-02-21T09:06:08.814Z,18.35
2018-02-21T09:06:57.865Z,20.98
2018-02-21T09:07:46.931Z,126.38
2018-02-21T09:08:36.018Z,39.60
2018-02-21T09:09:25.059Z,29.52
2018-02-21T09:10:14.144Z,38.78
2018-02-21T09:11:03.203Z,23.65
2018-02-21T09:11:52.243Z,24.67
2018-02-21T09:12:41.277Z,14.32
2018-02-21T09:13:30.335Z,22.98
2018-02-21T09:14:19.389Z,24.42
2018-02-21T09:15:08.433Z,29.05
2018-02-21T09:15:57.671Z,22.25
2018-02-21T09:16:46.793Z,17.60
2018-02-21T09:17:35.877Z,19.83
2018-02-21T09:18:24.930Z,37.58
2018-02-21T09:19:13.977Z,87.68
2018-02-21T09:20:03.042Z,21.20
2018-02-21T09:20:52.082Z,13.57
2018-02-21T09:21:41.225Z,11.23
2018-02-21T09:22:30.286Z,13.10
2018-02-21T09:23:19.383Z,13.77
2018-02-21T09:24:08.427Z,14.68
2018-02-21T09:24:57.464Z,24.08
2018-02-21T09:25:46.512Z,10.25
2018-02-21T09:26:35.555Z,17.05
2018-02-21T09:27:24.676Z,13.43
2018-02-21T09:28:13.709Z,13.55
2018-02-21T09:29:02.773Z,13.05
2018-02-21T09:29:51.821Z,16.87
2018-02-21T09:30:40.865Z,20.45
2018-02-21T09:31:29.931Z,19.80
2018-02-21T09:32:18.979Z,13.05
2018-02-21T09:33:08.293Z,13.35
2018-02-21T09:33:57.338Z,10.98
2018-02-21T09:34:46.397Z,10.73
2018-02-21T09:35:35.452Z,11.55
2018-02-21T09:36:24.505Z,21.80
2018-02-21T09:37:13.551Z,37.22
2018-02-21T09:38:02.605Z,43.78
2018-02-21T09:38:51.690Z,29.83
2018-02-21T09:39:40.760Z,22.62
2018-02-21T09:40:29.811Z,18.52
2018-02-21T09:41:19.224Z,15.82
2018-02-21T09:42:08.267Z,13.77
2018-02-21T09:42:57.314Z,12.45
2018-02-21T09:43:46.358Z,9.10
2018-02-21T09:44:35.397Z,9.32
2018-02-21T09:45:24.454Z,9.65
2018-02-21T09:46:13.506Z,13.62
2018-02-21T09:47:02.652Z,12.90
2018-02-21T09:47:51.696Z,10.60
2018-02-21T09:48:40.744Z,13.93
2018-02-21T09:49:29.785Z,18.58
2018-02-21T09:50:18.831Z,33.15
2018-02-21T09:51:07.883Z,36.33
2018-02-21T09:51:56.935Z,51.25
2018-02-21T09:52:47.516Z,19.58
2018-02-21T09:53:36.560Z,16.12
2018-02-21T09:54:25.613Z,27.30
2018-02-21T09:55:14.668Z,18.08
2018-02-21T09:56:03.784Z,34.83
2018-02-21T09:56:52.828Z,17.55
2018-02-21T09:57:41.882Z,17.08
2018-02-21T09:58:31.005Z,10.55
2018-02-21T09:59:20.102Z,12.32
2018-02-21T10:00:09.153Z,10.45
2018-02-21T10:00:58.279Z,11.32
2018-02-21T10:01:47.325Z,9.82
2018-02-21T10:02:36.366Z,11.12
2018-02-21T10:03:25.411Z,10.38
2018-02-21T10:04:14.490Z,14.60
2018-02-21T10:05:03.600Z,26.80
2018-02-21T10:05:52.643Z,27.55
2018-02-21T10:06:41.682Z,23.98
2018-02-21T10:07:30.821Z,43.63
2018-02-21T10:08:19.866Z,58.15
2018-02-21T10:09:08.938Z,42.13
2018-02-21T10:09:57.975Z,31.62
2018-02-21T10:10:47.040Z,30.70
2018-02-21T10:11:36.080Z,16.95
2018-02-21T10:12:25.135Z,21.23
2018-02-21T10:13:17.239Z,18.15
2018-02-21T10:14:06.300Z,26.77
2018-02-21T10:14:55.348Z,29.95
2018-02-21T10:15:44.400Z,33.03
2018-02-21T10:16:33.518Z,19.08
2018-02-21T10:17:22.624Z,24.65
2018-02-21T10:18:11.679Z,18.52
2018-02-21T10:19:00.783Z,11.75
2018-02-21T10:19:49.823Z,13.50
2018-02-21T10:20:38.872Z,15.65
2018-02-21T10:21:27.908Z,12.55
2018-02-21T10:22:16.939Z,14.20
2018-02-21T10:23:06.041Z,10.85
2018-02-21T10:23:55.087Z,10.57
2018-02-21T10:24:44.137Z,9.48
2018-02-21T10:25:33.172Z,7.57
2018-02-21T10:26:22.224Z,11.27
2018-02-21T10:27:11.273Z,9.25
2018-02-21T10:28:00.408Z,9.25
2018-02-21T10:28:49.439Z,11.85
2018-02-21T10:29:38.494Z,20.42
2018-02-21T10:30:27.549Z,18.90
2018-02-21T10:31:16.609Z,9.90
2018-02-21T10:32:05.689Z,14.82
2018-02-21T10:32:54.723Z,15.13
2018-02-21T10:33:43.982Z,16.42
2018-02-21T10:34:33.021Z,19.17
2018-02-21T10:35:22.061Z,16.17
2018-02-21T10:36:11.114Z,29.23
2018-02-21T10:37:00.211Z,23.75
2018-02-21T10:37:49.250Z,27.80